sensor_id;sensor_type;location;lat;lon;timestamp;temperature;humidity
4584;DHT22;2304;47.606;12.186;2023-09-30T00:00:50;18.50;85.40
4584;DHT22;2304;47.606;12.186;2023-09-30T00:05:52;18.70;85.60
4584;DHT22;2304;47.606;12.186;2023-09-30T00:10:55;18.50;85.90
4584;DHT22;2304;47.606;12.186;2023-09-30T00:15:57;18.50;86.50
4584;DHT22;2304;47.606;12.186;2023-09-30T00:20:59;18.50;87.00
4584;DHT22;2304;47.606;12.186;2023-09-30T00:26:02;18.60;86.40
4584;DHT22;2304;47.606;12.186;2023-09-30T00:31:07;18.50;86.30
4584;DHT22;2304;47.606;12.186;2023-09-30T00:36:10;18.70;85.40
4584;DHT22;2304;47.606;12.186;2023-09-30T00:41:14;18.70;84.40
4584;DHT22;2304;47.606;12.186;2023-09-30T00:46:21;18.80;84.20
4584;DHT22;2304;47.606;12.186;2023-09-30T00:51:26;18.80;84.30
4584;DHT22;2304;47.606;12.186;2023-09-30T00:56:30;18.70;86.80
4584;DHT22;2304;47.606;12.186;2023-09-30T01:01:32;18.60;87.20
4584;DHT22;2304;47.606;12.186;2023-09-30T01:06:34;18.50;88.30
4584;DHT22;2304;47.606;12.186;2023-09-30T01:11:37;18.50;87.60
4584;DHT22;2304;47.606;12.186;2023-09-30T01:16:40;18.60;87.70
4584;DHT22;2304;47.606;12.186;2023-09-30T01:21:43;18.50;87.80
4584;DHT22;2304;47.606;12.186;2023-09-30T01:26:48;18.50;86.80
4584;DHT22;2304;47.606;12.186;2023-09-30T01:31:50;18.50;87.30
4584;DHT22;2304;47.606;12.186;2023-09-30T01:36:53;18.60;87.10
4584;DHT22;2304;47.606;12.186;2023-09-30T01:41:55;18.60;87.00
4584;DHT22;2304;47.606;12.186;2023-09-30T01:46:57;18.60;87.00
4584;DHT22;2304;47.606;12.186;2023-09-30T01:52:00;18.60;86.50
4584;DHT22;2304;47.606;12.186;2023-09-30T01:57:03;18.80;85.90
4584;DHT22;2304;47.606;12.186;2023-09-30T02:02:04;18.90;85.80
4584;DHT22;2304;47.606;12.186;2023-09-30T02:07:08;18.70;85.30
4584;DHT22;2304;47.606;12.186;2023-09-30T02:12:09;18.60;85.60
4584;DHT22;2304;47.606;12.186;2023-09-30T02:17:11;18.60;86.50
4584;DHT22;2304;47.606;12.186;2023-09-30T02:22:15;18.80;86.00
4584;DHT22;2304;47.606;12.186;2023-09-30T02:27:16;18.60;84.70
4584;DHT22;2304;47.606;12.186;2023-09-30T02:32:18;18.60;86.10
4584;DHT22;2304;47.606;12.186;2023-09-30T02:37:21;18.50;85.70
4584;DHT22;2304;47.606;12.186;2023-09-30T02:42:23;18.60;85.60
4584;DHT22;2304;47.606;12.186;2023-09-30T02:47:25;18.60;85.10
4584;DHT22;2304;47.606;12.186;2023-09-30T02:52:28;18.60;84.20
4584;DHT22;2304;47.606;12.186;2023-09-30T02:57:30;18.60;84.30
4584;DHT22;2304;47.606;12.186;2023-09-30T03:02:32;18.60;84.00
4584;DHT22;2304;47.606;12.186;2023-09-30T03:07:35;18.60;84.60
4584;DHT22;2304;47.606;12.186;2023-09-30T03:12:38;18.60;84.50
4584;DHT22;2304;47.606;12.186;2023-09-30T03:17:40;18.60;84.60
4584;DHT22;2304;47.606;12.186;2023-09-30T03:22:44;18.50;85.20
4584;DHT22;2304;47.606;12.186;2023-09-30T03:27:48;18.50;84.70
4584;DHT22;2304;47.606;12.186;2023-09-30T03:32:50;18.70;85.30
4584;DHT22;2304;47.606;12.186;2023-09-30T03:37:53;18.60;84.50
4584;DHT22;2304;47.606;12.186;2023-09-30T03:42:55;18.60;83.90
4584;DHT22;2304;47.606;12.186;2023-09-30T03:47:57;18.60;84.60
4584;DHT22;2304;47.606;12.186;2023-09-30T03:53:03;18.50;84.70
4584;DHT22;2304;47.606;12.186;2023-09-30T03:58:05;18.50;84.60
4584;DHT22;2304;47.606;12.186;2023-09-30T04:03:07;18.50;84.10
4584;DHT22;2304;47.606;12.186;2023-09-30T04:08:10;18.40;84.50
4584;DHT22;2304;47.606;12.186;2023-09-30T04:13:13;18.40;84.50
4584;DHT22;2304;47.606;12.186;2023-09-30T04:18:15;18.40;84.00
4584;DHT22;2304;47.606;12.186;2023-09-30T04:23:18;18.50;84.40
4584;DHT22;2304;47.606;12.186;2023-09-30T04:28:20;18.50;85.60
4584;DHT22;2304;47.606;12.186;2023-09-30T04:33:22;18.40;85.00
4584;DHT22;2304;47.606;12.186;2023-09-30T04:38:26;18.50;85.50
4584;DHT22;2304;47.606;12.186;2023-09-30T04:43:28;18.40;85.80
4584;DHT22;2304;47.606;12.186;2023-09-30T04:48:31;18.50;85.10
4584;DHT22;2304;47.606;12.186;2023-09-30T04:53:34;18.50;85.00
4584;DHT22;2304;47.606;12.186;2023-09-30T04:58:35;18.40;85.20
4584;DHT22;2304;47.606;12.186;2023-09-30T05:03:37;18.40;85.30
4584;DHT22;2304;47.606;12.186;2023-09-30T05:08:40;18.50;85.20
4584;DHT22;2304;47.606;12.186;2023-09-30T05:13:42;18.40;85.70
4584;DHT22;2304;47.606;12.186;2023-09-30T05:18:44;18.30;86.40
4584;DHT22;2304;47.606;12.186;2023-09-30T05:23:47;18.40;85.30
4584;DHT22;2304;47.606;12.186;2023-09-30T05:28:49;18.40;85.00
4584;DHT22;2304;47.606;12.186;2023-09-30T05:33:52;18.40;85.70
4584;DHT22;2304;47.606;12.186;2023-09-30T05:38:56;18.30;86.30
4584;DHT22;2304;47.606;12.186;2023-09-30T05:43:58;18.30;86.00
4584;DHT22;2304;47.606;12.186;2023-09-30T05:49:00;18.30;86.30
4584;DHT22;2304;47.606;12.186;2023-09-30T05:54:04;18.30;87.20
4584;DHT22;2304;47.606;12.186;2023-09-30T05:59:06;18.30;88.30
4584;DHT22;2304;47.606;12.186;2023-09-30T06:04:08;18.20;88.10
4584;DHT22;2304;47.606;12.186;2023-09-30T06:09:12;18.20;87.70
4584;DHT22;2304;47.606;12.186;2023-09-30T06:14:14;18.30;88.60
4584;DHT22;2304;47.606;12.186;2023-09-30T06:19:15;18.20;88.90
4584;DHT22;2304;47.606;12.186;2023-09-30T06:24:19;18.20;89.00
4584;DHT22;2304;47.606;12.186;2023-09-30T06:29:21;18.30;88.70
4584;DHT22;2304;47.606;12.186;2023-09-30T06:34:23;18.30;89.50
4584;DHT22;2304;47.606;12.186;2023-09-30T06:39:27;18.20;89.80
4584;DHT22;2304;47.606;12.186;2023-09-30T06:44:30;18.20;90.00
4584;DHT22;2304;47.606;12.186;2023-09-30T06:49:33;18.30;89.90
4584;DHT22;2304;47.606;12.186;2023-09-30T06:54:36;18.30;90.20
4584;DHT22;2304;47.606;12.186;2023-09-30T06:59:39;18.30;90.10
4584;DHT22;2304;47.606;12.186;2023-09-30T07:04:41;18.30;90.10
4584;DHT22;2304;47.606;12.186;2023-09-30T07:09:44;18.30;89.70
4584;DHT22;2304;47.606;12.186;2023-09-30T07:14:46;18.60;89.30
4584;DHT22;2304;47.606;12.186;2023-09-30T07:19:48;18.50;88.60
4584;DHT22;2304;47.606;12.186;2023-09-30T07:24:52;18.70;89.00
4584;DHT22;2304;47.606;12.186;2023-09-30T07:29:54;18.60;89.20
4584;DHT22;2304;47.606;12.186;2023-09-30T07:34:56;18.70;89.00
4584;DHT22;2304;47.606;12.186;2023-09-30T07:39:59;18.70;89.00
4584;DHT22;2304;47.606;12.186;2023-09-30T07:45:01;18.70;88.60
4584;DHT22;2304;47.606;12.186;2023-09-30T07:50:05;18.70;88.30
4584;DHT22;2304;47.606;12.186;2023-09-30T07:55:11;18.70;88.50
4584;DHT22;2304;47.606;12.186;2023-09-30T08:00:14;18.70;89.10
4584;DHT22;2304;47.606;12.186;2023-09-30T08:05:16;18.80;88.90
4584;DHT22;2304;47.606;12.186;2023-09-30T08:10:19;18.80;89.70
4584;DHT22;2304;47.606;12.186;2023-09-30T08:15:21;18.90;88.90
4584;DHT22;2304;47.606;12.186;2023-09-30T08:20:23;18.90;89.40
4584;DHT22;2304;47.606;12.186;2023-09-30T08:25:26;18.90;88.40
4584;DHT22;2304;47.606;12.186;2023-09-30T08:30:28;18.90;87.90
4584;DHT22;2304;47.606;12.186;2023-09-30T08:35:30;18.90;86.80
4584;DHT22;2304;47.606;12.186;2023-09-30T08:40:33;19.00;87.60
4584;DHT22;2304;47.606;12.186;2023-09-30T08:45:38;19.30;88.90
4584;DHT22;2304;47.606;12.186;2023-09-30T08:50:41;19.20;87.90
4584;DHT22;2304;47.606;12.186;2023-09-30T08:55:46;19.20;87.30
4584;DHT22;2304;47.606;12.186;2023-09-30T09:00:48;19.30;86.80
4584;DHT22;2304;47.606;12.186;2023-09-30T09:05:54;19.40;86.60
4584;DHT22;2304;47.606;12.186;2023-09-30T09:10:59;19.60;86.60
4584;DHT22;2304;47.606;12.186;2023-09-30T09:16:07;19.70;85.90
4584;DHT22;2304;47.606;12.186;2023-09-30T09:21:10;20.00;84.30
4584;DHT22;2304;47.606;12.186;2023-09-30T09:26:23;20.20;82.70
4584;DHT22;2304;47.606;12.186;2023-09-30T09:31:28;20.50;83.20
4584;DHT22;2304;47.606;12.186;2023-09-30T09:36:39;20.80;84.20
4584;DHT22;2304;47.606;12.186;2023-09-30T09:41:51;21.30;82.90
4584;DHT22;2304;47.606;12.186;2023-09-30T09:46:53;21.40;78.10
4584;DHT22;2304;47.606;12.186;2023-09-30T09:51:55;21.40;74.20
4584;DHT22;2304;47.606;12.186;2023-09-30T09:57:00;21.40;74.40
4584;DHT22;2304;47.606;12.186;2023-09-30T10:02:10;21.60;72.90
4584;DHT22;2304;47.606;12.186;2023-09-30T10:07:16;21.60;72.10
4584;DHT22;2304;47.606;12.186;2023-09-30T10:12:22;21.80;73.90
4584;DHT22;2304;47.606;12.186;2023-09-30T10:23:18;22.90;67.60
4584;DHT22;2304;47.606;12.186;2023-09-30T10:28:35;22.90;67.00
4584;DHT22;2304;47.606;12.186;2023-09-30T10:34:22;23.00;66.60
4584;DHT22;2304;47.606;12.186;2023-09-30T10:39:58;23.00;65.80
4584;DHT22;2304;47.606;12.186;2023-09-30T10:45:01;23.00;65.00
4584;DHT22;2304;47.606;12.186;2023-09-30T10:55:50;23.20;65.10
4584;DHT22;2304;47.606;12.186;2023-09-30T11:00:56;23.50;63.60
4584;DHT22;2304;47.606;12.186;2023-09-30T11:09:53;23.50;62.80
4584;DHT22;2304;47.606;12.186;2023-09-30T11:15:02;23.10;61.90
4584;DHT22;2304;47.606;12.186;2023-09-30T11:20:05;23.00;63.10
4584;DHT22;2304;47.606;12.186;2023-09-30T11:25:16;23.10;63.70
4584;DHT22;2304;47.606;12.186;2023-09-30T11:30:19;23.40;64.00
4584;DHT22;2304;47.606;12.186;2023-09-30T11:35:23;23.80;62.90
4584;DHT22;2304;47.606;12.186;2023-09-30T11:40:26;23.40;61.00
4584;DHT22;2304;47.606;12.186;2023-09-30T11:45:28;23.10;62.00
4584;DHT22;2304;47.606;12.186;2023-09-30T11:50:45;23.10;61.90
4584;DHT22;2304;47.606;12.186;2023-09-30T11:55:49;23.30;62.00
4584;DHT22;2304;47.606;12.186;2023-09-30T12:00:53;23.50;62.50
4584;DHT22;2304;47.606;12.186;2023-09-30T12:05:55;23.40;61.20
4584;DHT22;2304;47.606;12.186;2023-09-30T12:10:59;23.10;60.40
4584;DHT22;2304;47.606;12.186;2023-09-30T12:16:01;23.10;60.20
4584;DHT22;2304;47.606;12.186;2023-09-30T12:21:04;23.20;59.40
4584;DHT22;2304;47.606;12.186;2023-09-30T12:26:08;23.60;60.50
4584;DHT22;2304;47.606;12.186;2023-09-30T12:31:11;23.90;60.00
4584;DHT22;2304;47.606;12.186;2023-09-30T12:36:14;24.10;58.10
4584;DHT22;2304;47.606;12.186;2023-09-30T12:41:17;24.30;57.40
4584;DHT22;2304;47.606;12.186;2023-09-30T12:46:21;24.40;57.80
4584;DHT22;2304;47.606;12.186;2023-09-30T12:51:25;24.30;56.90
4584;DHT22;2304;47.606;12.186;2023-09-30T12:56:28;24.10;55.70
4584;DHT22;2304;47.606;12.186;2023-09-30T13:01:30;23.90;56.50
4584;DHT22;2304;47.606;12.186;2023-09-30T13:06:34;23.90;56.70
4584;DHT22;2304;47.606;12.186;2023-09-30T13:11:38;24.10;57.20
4584;DHT22;2304;47.606;12.186;2023-09-30T13:16:40;24.20;56.50
4584;DHT22;2304;47.606;12.186;2023-09-30T13:21:42;24.10;56.00
4584;DHT22;2304;47.606;12.186;2023-09-30T13:26:46;24.20;54.60
4584;DHT22;2304;47.606;12.186;2023-09-30T13:31:48;24.00;55.80
4584;DHT22;2304;47.606;12.186;2023-09-30T13:36:50;23.70;55.60
4584;DHT22;2304;47.606;12.186;2023-09-30T13:41:53;23.40;55.00
4584;DHT22;2304;47.606;12.186;2023-09-30T13:46:55;23.20;55.70
4584;DHT22;2304;47.606;12.186;2023-09-30T13:51:57;23.00;57.20
4584;DHT22;2304;47.606;12.186;2023-09-30T13:57:00;22.70;55.80
4584;DHT22;2304;47.606;12.186;2023-09-30T14:02:02;22.70;56.90
4584;DHT22;2304;47.606;12.186;2023-09-30T14:07:04;22.60;56.30
4584;DHT22;2304;47.606;12.186;2023-09-30T14:12:09;22.40;57.20
4584;DHT22;2304;47.606;12.186;2023-09-30T14:17:11;22.40;57.30
4584;DHT22;2304;47.606;12.186;2023-09-30T14:22:15;22.20;57.70
4584;DHT22;2304;47.606;12.186;2023-09-30T14:27:19;22.00;58.60
4584;DHT22;2304;47.606;12.186;2023-09-30T14:32:21;22.00;59.00
4584;DHT22;2304;47.606;12.186;2023-09-30T14:37:24;22.00;59.90
4584;DHT22;2304;47.606;12.186;2023-09-30T14:42:27;21.90;59.60
4584;DHT22;2304;47.606;12.186;2023-09-30T14:47:29;21.80;59.60
4584;DHT22;2304;47.606;12.186;2023-09-30T14:52:31;21.80;60.40
4584;DHT22;2304;47.606;12.186;2023-09-30T14:57:34;21.70;60.70
4584;DHT22;2304;47.606;12.186;2023-09-30T15:02:36;21.60;61.40
4584;DHT22;2304;47.606;12.186;2023-09-30T15:07:39;21.60;61.20
4584;DHT22;2304;47.606;12.186;2023-09-30T15:12:42;21.60;61.30
4584;DHT22;2304;47.606;12.186;2023-09-30T15:17:44;21.50;61.20
4584;DHT22;2304;47.606;12.186;2023-09-30T15:22:46;21.50;62.10
4584;DHT22;2304;47.606;12.186;2023-09-30T15:27:49;21.40;62.60
4584;DHT22;2304;47.606;12.186;2023-09-30T15:32:52;21.40;62.50
4584;DHT22;2304;47.606;12.186;2023-09-30T15:37:54;21.40;62.90
4584;DHT22;2304;47.606;12.186;2023-09-30T15:42:57;21.30;63.00
4584;DHT22;2304;47.606;12.186;2023-09-30T15:47:59;21.30;63.00
4584;DHT22;2304;47.606;12.186;2023-09-30T15:53:01;21.30;63.20
4584;DHT22;2304;47.606;12.186;2023-09-30T15:58:05;21.20;63.10
4584;DHT22;2304;47.606;12.186;2023-09-30T16:03:08;21.20;64.00
4584;DHT22;2304;47.606;12.186;2023-09-30T16:08:10;21.10;63.30
4584;DHT22;2304;47.606;12.186;2023-09-30T16:13:14;21.00;63.40
4584;DHT22;2304;47.606;12.186;2023-09-30T16:18:16;21.00;63.80
4584;DHT22;2304;47.606;12.186;2023-09-30T16:23:18;20.90;63.50
4584;DHT22;2304;47.606;12.186;2023-09-30T16:28:21;20.90;63.50
4584;DHT22;2304;47.606;12.186;2023-09-30T16:33:23;20.80;64.40
4584;DHT22;2304;47.606;12.186;2023-09-30T16:38:25;20.80;64.90
4584;DHT22;2304;47.606;12.186;2023-09-30T16:43:30;20.70;65.40
4584;DHT22;2304;47.606;12.186;2023-09-30T16:48:32;20.60;65.90
4584;DHT22;2304;47.606;12.186;2023-09-30T16:53:34;20.60;66.40
4584;DHT22;2304;47.606;12.186;2023-09-30T16:58:39;20.50;66.30
4584;DHT22;2304;47.606;12.186;2023-09-30T17:03:41;20.40;66.40
4584;DHT22;2304;47.606;12.186;2023-09-30T17:08:43;20.40;65.80
4584;DHT22;2304;47.606;12.186;2023-09-30T17:13:46;20.30;66.20
4584;DHT22;2304;47.606;12.186;2023-09-30T17:18:49;20.20;67.30
4584;DHT22;2304;47.606;12.186;2023-09-30T17:23:51;20.10;67.60
4584;DHT22;2304;47.606;12.186;2023-09-30T17:28:54;20.00;67.80
4584;DHT22;2304;47.606;12.186;2023-09-30T17:33:56;20.00;67.50
4584;DHT22;2304;47.606;12.186;2023-09-30T17:38:58;19.90;67.50
4584;DHT22;2304;47.606;12.186;2023-09-30T17:44:01;19.80;68.10
4584;DHT22;2304;47.606;12.186;2023-09-30T17:49:03;19.70;68.30
4584;DHT22;2304;47.606;12.186;2023-09-30T17:54:05;19.60;68.60
4584;DHT22;2304;47.606;12.186;2023-09-30T17:59:09;19.50;68.90
4584;DHT22;2304;47.606;12.186;2023-09-30T18:04:12;19.40;69.30
4584;DHT22;2304;47.606;12.186;2023-09-30T18:09:14;19.30;69.40
4584;DHT22;2304;47.606;12.186;2023-09-30T18:14:18;19.20;69.20
4584;DHT22;2304;47.606;12.186;2023-09-30T18:19:21;19.20;69.40
4584;DHT22;2304;47.606;12.186;2023-09-30T18:24:23;19.20;69.20
4584;DHT22;2304;47.606;12.186;2023-09-30T18:29:26;19.10;69.50
4584;DHT22;2304;47.606;12.186;2023-09-30T18:34:28;19.10;69.70
4584;DHT22;2304;47.606;12.186;2023-09-30T18:39:32;19.00;69.80
4584;DHT22;2304;47.606;12.186;2023-09-30T18:44:35;19.00;69.90
4584;DHT22;2304;47.606;12.186;2023-09-30T18:49:39;18.90;69.90
4584;DHT22;2304;47.606;12.186;2023-09-30T18:54:41;18.90;70.20
4584;DHT22;2304;47.606;12.186;2023-09-30T18:59:44;18.70;71.00
4584;DHT22;2304;47.606;12.186;2023-09-30T19:04:46;18.60;70.80
4584;DHT22;2304;47.606;12.186;2023-09-30T19:09:48;18.50;71.20
4584;DHT22;2304;47.606;12.186;2023-09-30T19:14:51;18.50;71.60
4584;DHT22;2304;47.606;12.186;2023-09-30T19:19:53;18.40;71.70
4584;DHT22;2304;47.606;12.186;2023-09-30T19:24:55;18.30;72.00
4584;DHT22;2304;47.606;12.186;2023-09-30T19:29:59;18.30;72.10
4584;DHT22;2304;47.606;12.186;2023-09-30T19:35:01;18.30;72.20
4584;DHT22;2304;47.606;12.186;2023-09-30T19:40:05;18.20;72.80
4584;DHT22;2304;47.606;12.186;2023-09-30T19:45:09;18.10;73.50
4584;DHT22;2304;47.606;12.186;2023-09-30T19:50:11;18.10;73.70
4584;DHT22;2304;47.606;12.186;2023-09-30T19:55:13;18.10;73.50
4584;DHT22;2304;47.606;12.186;2023-09-30T20:00:17;18.00;73.30
4584;DHT22;2304;47.606;12.186;2023-09-30T20:05:19;18.00;73.80
4584;DHT22;2304;47.606;12.186;2023-09-30T20:10:21;17.90;74.50
4584;DHT22;2304;47.606;12.186;2023-09-30T20:15:25;17.80;74.20
4584;DHT22;2304;47.606;12.186;2023-09-30T20:20:27;17.70;74.50
4584;DHT22;2304;47.606;12.186;2023-09-30T20:25:29;17.60;75.00
4584;DHT22;2304;47.606;12.186;2023-09-30T20:30:32;17.70;74.60
4584;DHT22;2304;47.606;12.186;2023-09-30T20:35:34;17.70;74.20
4584;DHT22;2304;47.606;12.186;2023-09-30T20:40:38;17.70;74.10
4584;DHT22;2304;47.606;12.186;2023-09-30T20:45:44;17.60;74.00
4584;DHT22;2304;47.606;12.186;2023-09-30T20:50:46;17.40;74.30
4584;DHT22;2304;47.606;12.186;2023-09-30T20:55:48;17.40;74.60
4584;DHT22;2304;47.606;12.186;2023-09-30T21:00:51;17.40;74.80
4584;DHT22;2304;47.606;12.186;2023-09-30T21:05:53;17.30;74.80
4584;DHT22;2304;47.606;12.186;2023-09-30T21:10:55;17.30;74.50
4584;DHT22;2304;47.606;12.186;2023-09-30T21:16:00;17.20;74.50
4584;DHT22;2304;47.606;12.186;2023-09-30T21:21:02;17.20;74.50
4584;DHT22;2304;47.606;12.186;2023-09-30T21:26:04;17.00;75.40
4584;DHT22;2304;47.606;12.186;2023-09-30T21:31:13;16.80;75.00
4584;DHT22;2304;47.606;12.186;2023-09-30T21:36:15;17.00;75.40
4584;DHT22;2304;47.606;12.186;2023-09-30T21:41:19;16.90;75.50
4584;DHT22;2304;47.606;12.186;2023-09-30T21:46:22;16.80;75.50
4584;DHT22;2304;47.606;12.186;2023-09-30T21:51:24;16.80;75.50
4584;DHT22;2304;47.606;12.186;2023-09-30T21:56:26;16.80;75.40
4584;DHT22;2304;47.606;12.186;2023-09-30T22:01:29;16.80;75.20
4584;DHT22;2304;47.606;12.186;2023-09-30T22:06:32;16.70;75.20
4584;DHT22;2304;47.606;12.186;2023-09-30T22:11:34;16.60;75.40
4584;DHT22;2304;47.606;12.186;2023-09-30T22:16:37;16.60;75.40
4584;DHT22;2304;47.606;12.186;2023-09-30T22:21:39;16.60;75.40
4584;DHT22;2304;47.606;12.186;2023-09-30T22:26:41;16.50;76.00
4584;DHT22;2304;47.606;12.186;2023-09-30T22:31:45;16.50;76.00
4584;DHT22;2304;47.606;12.186;2023-09-30T22:36:47;16.50;75.90
4584;DHT22;2304;47.606;12.186;2023-09-30T22:41:49;16.50;75.50
4584;DHT22;2304;47.606;12.186;2023-09-30T22:46:53;16.40;75.30
4584;DHT22;2304;47.606;12.186;2023-09-30T22:51:54;16.40;75.30
4584;DHT22;2304;47.606;12.186;2023-09-30T22:56:56;16.40;75.40
4584;DHT22;2304;47.606;12.186;2023-09-30T23:02:00;16.30;75.70
4584;DHT22;2304;47.606;12.186;2023-09-30T23:07:02;16.30;76.10
4584;DHT22;2304;47.606;12.186;2023-09-30T23:12:04;16.30;76.50
4584;DHT22;2304;47.606;12.186;2023-09-30T23:17:09;16.30;77.10
4584;DHT22;2304;47.606;12.186;2023-09-30T23:22:11;16.30;77.40
4584;DHT22;2304;47.606;12.186;2023-09-30T23:27:15;16.50;78.00
4584;DHT22;2304;47.606;12.186;2023-09-30T23:32:19;16.30;77.70
4584;DHT22;2304;47.606;12.186;2023-09-30T23:37:21;16.50;77.70
4584;DHT22;2304;47.606;12.186;2023-09-30T23:42:24;16.60;78.10
4584;DHT22;2304;47.606;12.186;2023-09-30T23:47:27;16.30;79.10
4584;DHT22;2304;47.606;12.186;2023-09-30T23:52:29;16.30;78.50
4584;DHT22;2304;47.606;12.186;2023-09-30T23:57:32;16.30;78.70
